createdAt,value
2023-04-11T00:01:58.510Z,100565.07
2023-04-11T00:04:30.083Z,100560.46
2023-04-11T00:07:00.996Z,100557.58
2023-04-11T00:09:31.936Z,100549.73
2023-04-11T00:12:03.081Z,100547.36
2023-04-11T00:14:34.587Z,100543.28
2023-04-11T00:17:06.160Z,100541.41
2023-04-11T00:19:37.682Z,100536.98
2023-04-11T00:22:10.265Z,100539.72
2023-04-11T00:24:41.179Z,100534.59
2023-04-11T00:27:12.366Z,100532.89
2023-04-11T00:29:43.259Z,100532.20
2023-04-11T00:32:14.200Z,100535.12
2023-04-11T00:34:45.105Z,100529.47
2023-04-11T00:37:16.127Z,100530.84
2023-04-11T00:39:50.448Z,100529.13
2023-04-11T00:42:21.835Z,100524.00
2023-04-11T00:44:53.256Z,100519.89
2023-04-11T00:47:24.262Z,100515.96
2023-04-11T00:49:55.683Z,100514.27
2023-04-11T00:52:26.702Z,100512.05
2023-04-11T00:54:57.845Z,100511.55
2023-04-11T00:57:31.009Z,100511.38
2023-04-11T01:00:04.357Z,100512.75
2023-04-11T01:02:35.428Z,100508.85
2023-04-11T01:05:08.053Z,100506.45
2023-04-11T01:07:41.245Z,100501.02
2023-04-11T01:10:13.943Z,100504.95
2023-04-11T01:12:46.980Z,100503.60
2023-04-11T01:15:18.131Z,100493.88
2023-04-11T01:17:49.442Z,100494.39
2023-04-11T01:20:21.652Z,100495.41
2023-04-11T01:22:52.992Z,100495.07
2023-04-11T01:25:25.691Z,100491.99
2023-04-11T01:27:57.527Z,100489.60
2023-04-11T01:30:28.620Z,100490.30
2023-04-11T01:33:00.650Z,100485.36
2023-04-11T01:35:31.910Z,100487.41
2023-04-11T01:38:08.823Z,100484.86
2023-04-11T01:40:41.446Z,100487.42
2023-04-11T01:43:13.851Z,100488.30
2023-04-11T01:45:47.656Z,100482.33
2023-04-11T01:48:19.047Z,100476.19
2023-04-11T01:50:51.633Z,100475.34
2023-04-11T01:53:22.535Z,100473.11
2023-04-11T01:55:53.467Z,100471.77
2023-04-11T01:58:24.545Z,100471.92
2023-04-11T02:00:55.491Z,100469.38
2023-04-11T02:03:26.627Z,100465.64
2023-04-11T02:05:59.127Z,100460.52
2023-04-11T02:08:30.111Z,100458.13
2023-04-11T02:11:01.132Z,100454.36
2023-04-11T02:13:32.451Z,100452.66
2023-04-11T02:16:11.554Z,100449.08
2023-04-11T02:18:43.160Z,100446.01
2023-04-11T02:21:14.133Z,100448.90
2023-04-11T02:23:45.142Z,100448.04
2023-04-11T02:26:16.762Z,100447.20
2023-04-11T02:28:47.706Z,100444.96
2023-04-11T02:31:18.595Z,100442.74
2023-04-11T02:33:49.522Z,100438.82
2023-04-11T02:36:22.192Z,100433.02
2023-04-11T02:38:53.255Z,100432.33
2023-04-11T02:41:24.454Z,100433.52
2023-04-11T02:43:55.549Z,100429.94
2023-04-11T02:46:26.635Z,100422.59
2023-04-11T02:48:58.088Z,100420.02
2023-04-11T02:51:29.228Z,100414.90
2023-04-11T02:54:00.173Z,100414.39
2023-04-11T02:56:31.801Z,100420.36
2023-04-11T02:59:02.676Z,100419.36
2023-04-11T03:01:34.404Z,100422.10
2023-04-11T03:04:05.903Z,100419.71
2023-04-11T03:06:44.549Z,100419.57
2023-04-11T03:09:16.372Z,100419.06
2023-04-11T03:11:47.557Z,100414.64
2023-04-11T03:14:19.218Z,100408.17
2023-04-11T03:16:50.206Z,100408.00
2023-04-11T03:19:21.410Z,100401.88
2023-04-11T03:21:52.378Z,100402.05
2023-04-11T03:24:23.827Z,100396.42
2023-04-11T03:26:55.151Z,100394.90
2023-04-11T03:29:26.635Z,100397.64
2023-04-11T03:32:07.131Z,100392.70
2023-04-11T03:34:39.230Z,100392.52
2023-04-11T03:37:11.314Z,100390.83
2023-04-11T03:39:42.594Z,100389.48
2023-04-11T03:42:13.608Z,100393.06
2023-04-11T03:44:45.673Z,100390.84
2023-04-11T03:47:16.615Z,100389.66
2023-04-11T03:49:47.566Z,100393.57
2023-04-11T03:52:19.485Z,100394.59
2023-04-11T03:54:51.759Z,100392.89
2023-04-11T03:57:23.119Z,100391.36
2023-04-11T03:59:56.890Z,100391.53
2023-04-11T04:02:28.096Z,100385.06
2023-04-11T04:05:00.294Z,100386.27
2023-04-11T04:07:36.684Z,100385.75
2023-04-11T04:10:33.858Z,100386.26
2023-04-11T04:13:05.056Z,100384.73
2023-04-11T04:15:40.819Z,100385.59
2023-04-11T04:18:12.579Z,100384.90
2023-04-11T04:20:50.603Z,100388.30
2023-04-11T04:23:23.979Z,100390.17
2023-04-11T04:26:17.816Z,100387.44
2023-04-11T04:28:57.581Z,100387.20
2023-04-11T04:31:34.847Z,100385.52
2023-04-11T04:34:10.269Z,100386.18
2023-04-11T04:36:48.137Z,100381.02
2023-04-11T04:39:25.586Z,100379.81
2023-04-11T04:42:01.829Z,100371.78
2023-04-11T04:44:38.062Z,100365.48
2023-04-11T04:47:15.637Z,100362.11
2023-04-11T04:49:47.590Z,100356.89
2023-04-11T04:52:19.878Z,100354.25
2023-04-11T04:54:50.953Z,100349.48
2023-04-11T04:57:22.560Z,100348.21
2023-04-11T04:59:54.128Z,100347.79
2023-04-11T05:02:27.015Z,100349.70
2023-04-11T05:05:04.274Z,100355.61
2023-04-11T05:07:35.414Z,100359.21
2023-04-11T05:10:07.182Z,100355.92
2023-04-11T05:12:39.382Z,100359.34
2023-04-11T05:15:13.093Z,100356.65
2023-04-11T05:17:44.441Z,100355.12
2023-04-11T05:20:16.351Z,100352.79
2023-04-11T05:22:50.981Z,100348.07
2023-04-11T05:25:22.488Z,100345.67
2023-04-11T05:27:53.905Z,100334.66
2023-04-11T05:30:27.496Z,100331.89
2023-04-11T05:32:59.531Z,100330.43
2023-04-11T05:35:31.142Z,100327.18
2023-04-11T05:38:02.242Z,100327.61
2023-04-11T05:40:33.329Z,100321.91
2023-04-11T05:43:04.271Z,100318.77
2023-04-11T05:45:35.178Z,100312.09
2023-04-11T05:48:08.016Z,100308.95
2023-04-11T05:50:39.152Z,100306.63
2023-04-11T05:53:11.361Z,100302.52
2023-04-11T05:55:42.676Z,100300.17
2023-04-11T05:58:14.051Z,100296.22
2023-04-11T06:00:46.271Z,100290.54
2023-04-11T06:03:17.646Z,100284.31
2023-04-11T06:05:48.717Z,100280.88
2023-04-11T06:08:21.619Z,100281.35
2023-04-11T06:10:57.235Z,100282.33
2023-04-11T06:13:28.300Z,100283.67
2023-04-11T06:16:07.203Z,100278.58
2023-04-11T06:18:39.295Z,100279.30
2023-04-11T06:21:10.579Z,100273.45
2023-04-11T06:23:41.977Z,100270.85
2023-04-11T06:26:12.935Z,100271.52
2023-04-11T06:28:45.253Z,100272.42
2023-04-11T06:31:17.209Z,100267.98
2023-04-11T06:33:48.309Z,100269.38
2023-04-11T06:36:19.526Z,100265.73
2023-04-11T06:38:50.741Z,100263.68
2023-04-11T06:41:21.724Z,100262.06
2023-04-11T06:43:55.740Z,100256.06
2023-04-11T06:46:27.479Z,100254.66
2023-04-11T06:48:58.685Z,100249.89
2023-04-11T06:51:29.679Z,100249.75
2023-04-11T06:54:00.619Z,100239.74
2023-04-11T06:56:35.988Z,100243.77
2023-04-11T06:59:09.415Z,100239.16
2023-04-11T07:01:41.206Z,100234.16
2023-04-11T07:04:12.898Z,100230.31
2023-04-11T07:06:58.007Z,100227.50
2023-04-11T07:09:29.196Z,100223.61
2023-04-11T07:12:01.517Z,100219.30
2023-04-11T07:14:36.918Z,100215.63
2023-04-11T07:17:08.156Z,100216.30
2023-04-11T07:19:39.289Z,100212.56
2023-04-11T07:22:10.647Z,100212.56
2023-04-11T07:24:43.783Z,100206.73
2023-04-11T07:27:17.289Z,100205.90
2023-04-11T07:29:49.182Z,100206.75
2023-04-11T07:32:20.725Z,100203.59
2023-04-11T07:35:02.609Z,100201.78
2023-04-11T07:37:34.106Z,100198.61
2023-04-11T07:40:12.045Z,100196.40
2023-04-11T07:42:43.482Z,100189.73
2023-04-11T07:45:14.808Z,100187.61
2023-04-11T07:47:55.491Z,100182.92
2023-04-11T07:50:26.713Z,100179.13
2023-04-11T07:52:57.688Z,100177.36
2023-04-11T07:55:36.129Z,100177.65
2023-04-11T07:58:08.304Z,100171.88
2023-04-11T08:00:39.597Z,100170.93
2023-04-11T08:03:11.951Z,100169.33
2023-04-11T08:05:53.871Z,100169.30
2023-04-11T08:08:26.035Z,100167.29
2023-04-11T08:10:57.614Z,100166.37
2023-04-11T08:13:36.716Z,100161.14
2023-04-11T08:16:11.917Z,100159.77
2023-04-11T08:18:43.198Z,100156.10
2023-04-11T08:21:14.496Z,100156.36
2023-04-11T08:23:48.491Z,100162.59
2023-04-11T08:26:38.392Z,100164.92
2023-04-11T08:29:21.326Z,100156.10
2023-04-11T08:32:02.470Z,100155.67
2023-04-11T08:34:36.699Z,100147.89
2023-04-11T08:37:08.550Z,100140.71
2023-04-11T08:39:40.021Z,100132.06
2023-04-11T08:42:25.487Z,100127.95
2023-04-11T08:44:58.852Z,100126.29
2023-04-11T08:47:32.211Z,100115.56
2023-04-11T08:50:10.118Z,100112.92
2023-04-11T08:52:50.504Z,100109.15
2023-04-11T08:55:21.744Z,100105.39
2023-04-11T08:57:53.863Z,100110.44
2023-04-11T09:00:29.243Z,100095.77
2023-04-11T09:03:02.502Z,100092.86
2023-04-11T09:05:35.333Z,100086.72
2023-04-11T09:08:08.803Z,100085.70
2023-04-11T09:10:41.713Z,100082.86
2023-04-11T09:13:24.626Z,100079.95
2023-04-11T09:16:10.007Z,100081.46
2023-04-11T09:18:39.988Z,100075.20
2023-04-11T09:21:13.050Z,100063.05
2023-04-11T09:23:44.932Z,100069.80
2023-04-11T09:26:27.126Z,100064.66
2023-04-11T09:28:58.628Z,100056.67
2023-04-11T09:31:44.388Z,100045.33
2023-04-11T09:34:31.866Z,100034.91
2023-04-11T09:37:09.104Z,100026.42
2023-04-11T09:40:03.956Z,100030.16
2023-04-11T09:42:42.118Z,100016.91
2023-04-11T09:45:22.555Z,100009.66
2023-04-11T09:47:55.851Z,99996.88
2023-04-11T09:50:28.821Z,99999.52
2023-04-11T09:52:59.842Z,99990.25
2023-04-11T09:55:30.864Z,99985.62
2023-04-11T09:58:02.363Z,99977.27
2023-04-11T10:00:34.425Z,99981.75
2023-04-11T10:03:05.888Z,99982.69
2023-04-11T10:05:39.121Z,99980.44
2023-04-11T10:08:18.802Z,99972.45
2023-04-11T10:10:51.086Z,99985.09
2023-04-11T10:13:43.264Z,99972.66
2023-04-11T10:16:15.736Z,99969.98
2023-04-11T10:19:23.756Z,99977.25
2023-04-11T10:21:54.746Z,99971.06
2023-04-11T10:24:26.821Z,99973.87
2023-04-11T10:27:00.171Z,99975.41
2023-04-11T10:29:51.678Z,99968.99
2023-04-11T10:32:36.463Z,99972.34
2023-04-11T10:35:29.628Z,99967.11
2023-04-11T10:38:00.788Z,99954.42
2023-04-11T10:40:31.835Z,99952.88
2023-04-11T10:43:22.444Z,99947.65
2023-04-11T10:46:20.583Z,99950.54
2023-04-11T10:49:02.925Z,99945.17
2023-04-11T10:51:37.315Z,99933.31
2023-04-11T10:54:29.736Z,99930.73
2023-04-11T10:57:01.022Z,99937.82
2023-04-11T11:00:02.389Z,99941.02
2023-04-11T11:02:42.612Z,99947.66
2023-04-11T11:05:25.112Z,99938.77
2023-04-11T11:07:56.718Z,99933.85
2023-04-11T11:10:46.418Z,99937.39
2023-04-11T11:13:18.125Z,99930.97
2023-04-11T11:15:55.342Z,99933.14
2023-04-11T11:18:28.306Z,99923.73
2023-04-11T11:20:59.454Z,99920.36
2023-04-11T11:23:30.986Z,99916.63
2023-04-11T11:26:02.478Z,99914.59
2023-04-11T11:28:33.460Z,99911.34
2023-04-11T11:31:04.975Z,99913.61
2023-04-11T11:33:44.747Z,99898.16
2023-04-11T11:36:17.675Z,99892.02
2023-04-11T11:38:48.852Z,99893.40
2023-04-11T11:41:20.043Z,99889.04
2023-04-11T11:43:51.214Z,99889.48
2023-04-11T11:46:22.808Z,99889.80
2023-04-11T11:49:05.457Z,99891.36
2023-04-11T11:51:48.156Z,99878.52
2023-04-11T11:54:19.161Z,99877.94
2023-04-11T11:56:54.277Z,99883.17
2023-04-11T11:59:28.982Z,99880.63
2023-04-11T12:02:00.089Z,99875.48
2023-04-11T12:04:32.490Z,99870.33
2023-04-11T12:07:12.332Z,99877.31
2023-04-11T12:09:43.780Z,99876.04
2023-04-11T12:12:18.146Z,99877.35
2023-04-11T12:14:56.629Z,99875.58
2023-04-11T12:17:33.244Z,99877.29
2023-04-11T12:20:07.653Z,99869.00
2023-04-11T12:22:39.305Z,99859.13
2023-04-11T12:25:14.768Z,99861.43
2023-04-11T12:27:47.367Z,99860.75
2023-04-11T12:30:18.748Z,99851.61
2023-04-11T12:32:50.135Z,99856.56
2023-04-11T12:39:05.335Z,99841.70
2023-04-11T12:41:36.665Z,99841.23
2023-04-11T12:44:07.732Z,99833.91
2023-04-11T12:46:38.920Z,99832.30
2023-04-11T12:49:10.043Z,99825.36
2023-04-11T12:51:41.068Z,99819.20
2023-04-11T12:54:13.065Z,99819.89
2023-04-11T12:56:44.205Z,99817.91
2023-04-11T12:59:16.975Z,99820.13
2023-04-11T13:01:55.385Z,99821.77
2023-04-11T13:04:29.538Z,99814.05
2023-04-11T13:07:01.993Z,99813.27
2023-04-11T13:09:33.456Z,99815.06
2023-04-11T13:12:04.655Z,99811.70
2023-04-11T13:14:38.279Z,99813.56
2023-04-11T13:17:09.357Z,99801.29
2023-04-11T13:19:40.501Z,99804.82
2023-04-11T13:22:11.729Z,99798.23
2023-04-11T13:24:43.415Z,99791.81
2023-04-11T13:27:14.666Z,99779.52
2023-04-11T13:29:45.823Z,99786.77
2023-04-11T13:32:16.972Z,99779.64
2023-04-11T13:34:53.298Z,99773.77
2023-04-11T13:37:24.385Z,99771.52
2023-04-11T13:39:55.525Z,99771.67
2023-04-11T13:42:26.693Z,99763.81
2023-04-11T13:44:57.785Z,99776.41
2023-04-11T13:47:29.014Z,99762.40
2023-04-11T13:50:00.214Z,99755.83
2023-04-11T13:52:34.199Z,99758.13
2023-04-11T13:55:07.856Z,99755.60
2023-04-11T13:57:39.028Z,99749.23
2023-04-11T14:00:13.227Z,99759.14
2023-04-11T14:02:46.528Z,99752.58
2023-04-11T14:05:17.930Z,99743.14
2023-04-11T14:07:49.690Z,99743.95
2023-04-11T14:10:21.314Z,99737.13
2023-04-11T14:12:58.603Z,99734.07
2023-04-11T14:15:31.787Z,99740.02
2023-04-11T14:18:02.984Z,99737.34
2023-04-11T14:20:40.696Z,99729.81
2023-04-11T14:23:14.053Z,99725.33
2023-04-11T14:25:45.236Z,99727.92
2023-04-11T14:28:16.607Z,99719.77
2023-04-11T14:30:54.396Z,99719.90
2023-04-11T14:33:26.668Z,99718.63
2023-04-11T14:36:21.584Z,99716.95
2023-04-11T14:38:53.077Z,99714.89
2023-04-11T14:41:24.588Z,99716.05
2023-04-11T14:44:03.536Z,99720.11
2023-04-11T14:46:35.639Z,99707.33
2023-04-11T14:49:07.581Z,99707.02
2023-04-11T14:51:44.187Z,99700.30
2023-04-11T14:54:15.910Z,99699.89
2023-04-11T14:56:49.885Z,99694.77
2023-04-11T14:59:21.568Z,99701.11
2023-04-11T15:01:52.577Z,99699.61
2023-04-11T15:04:23.699Z,99700.42
2023-04-11T15:06:54.710Z,99700.81
2023-04-11T15:09:25.815Z,99701.61
2023-04-11T15:11:57.154Z,99694.80
2023-04-11T15:14:30.612Z,99701.77
2023-04-11T15:17:01.747Z,99701.41
2023-04-11T15:19:32.851Z,99688.76
2023-04-11T15:22:13.214Z,99692.59
2023-04-11T15:25:19.623Z,99686.17
2023-04-11T15:27:54.935Z,99676.57
2023-04-11T15:30:26.139Z,99676.55
2023-04-11T15:32:57.185Z,99672.89
2023-04-11T15:35:28.166Z,99673.23
2023-04-11T15:38:07.646Z,99668.55
2023-04-11T15:40:39.505Z,99669.73
2023-04-11T15:43:10.461Z,99667.90
2023-04-11T15:45:46.893Z,99667.20
2023-04-11T15:48:18.360Z,99666.27
2023-04-11T15:50:52.630Z,99662.09
2023-04-11T15:53:27.556Z,99659.86
2023-04-11T15:56:04.793Z,99657.73
2023-04-11T15:58:35.845Z,99655.18
2023-04-11T16:01:22.126Z,99654.56
2023-04-11T16:03:57.344Z,99653.05
2023-04-11T16:06:30.435Z,99651.33
2023-04-11T16:09:01.657Z,99647.73
2023-04-11T16:11:55.008Z,99644.52
2023-04-11T16:14:27.980Z,99645.80
2023-04-11T16:16:58.937Z,99639.35
2023-04-11T16:19:34.044Z,99647.02
2023-04-11T16:22:05.154Z,99636.02
2023-04-11T16:24:38.698Z,99636.85
2023-04-11T16:27:09.872Z,99637.10
2023-04-11T16:29:41.992Z,99635.84
2023-04-11T16:32:13.295Z,99632.56
2023-04-11T16:34:44.241Z,99633.45
2023-04-11T16:40:01.542Z,99630.52
2023-04-11T16:42:36.469Z,99623.44
2023-04-11T16:45:11.912Z,99625.27
2023-04-11T16:47:44.697Z,99623.83
2023-04-11T16:50:18.086Z,99621.99
2023-04-11T16:52:51.917Z,99624.25
2023-04-11T16:55:23.085Z,99624.64
2023-04-11T16:57:56.374Z,99623.50
2023-04-11T17:00:43.500Z,99621.41
2023-04-11T17:03:14.882Z,99622.92
2023-04-11T17:05:46.874Z,99619.75
2023-04-11T17:08:21.058Z,99615.58
2023-04-11T17:11:06.296Z,99618.80
2023-04-11T17:13:39.453Z,99616.87
2023-04-11T17:16:11.692Z,99611.89
2023-04-11T17:18:43.921Z,99618.23
2023-04-11T17:21:18.065Z,99614.75
2023-04-11T17:23:50.430Z,99615.73
2023-04-11T17:26:21.605Z,99612.91
2023-04-11T17:28:54.109Z,99614.19
2023-04-11T17:31:27.738Z,99613.05
2023-04-11T17:34:06.672Z,99609.02
2023-04-11T17:36:43.165Z,99607.58
2023-04-11T17:39:18.121Z,99608.52
2023-04-11T17:41:49.709Z,99612.02
2023-04-11T17:44:20.857Z,99612.45
2023-04-11T17:46:51.890Z,99613.73
2023-04-11T17:49:27.511Z,99610.90
2023-04-11T17:51:59.686Z,99614.52
2023-04-11T17:54:31.088Z,99612.27
2023-04-11T17:57:03.283Z,99613.09
2023-04-11T17:59:34.827Z,99610.70
2023-04-11T18:02:06.608Z,99613.73
2023-04-11T18:04:37.808Z,99614.70
2023-04-11T18:07:11.056Z,99618.94
2023-04-11T18:09:44.783Z,99617.01
2023-04-11T18:12:15.749Z,99620.41
2023-04-11T18:14:48.705Z,99626.90
2023-04-11T18:17:19.753Z,99628.06
2023-04-11T18:19:50.811Z,99631.11
2023-04-11T18:22:22.911Z,99633.11
2023-04-11T18:24:57.127Z,99635.11
2023-04-11T18:27:29.088Z,99634.87
2023-04-11T18:30:00.736Z,99638.27
2023-04-11T18:32:40.392Z,99638.02
2023-04-11T18:35:13.346Z,99638.13
2023-04-11T18:37:46.700Z,99643.58
2023-04-11T18:40:22.946Z,99640.09
2023-04-11T18:42:56.092Z,99636.09
2023-04-11T18:45:28.264Z,99635.83
2023-04-11T18:47:59.428Z,99636.90
2023-04-11T18:50:30.883Z,99633.38
2023-04-11T18:53:05.902Z,99632.79
2023-04-11T18:55:40.373Z,99634.11
2023-04-11T18:58:15.716Z,99635.06
2023-04-11T19:00:49.564Z,99637.60
2023-04-11T19:03:25.791Z,99638.91
2023-04-11T19:05:57.818Z,99636.80
2023-04-11T19:08:33.227Z,99639.14
2023-04-11T19:11:03.042Z,99637.73
2023-04-11T19:13:35.020Z,99637.36
2023-04-11T19:16:06.737Z,99636.61
2023-04-11T19:18:39.684Z,99638.12
2023-04-11T19:21:12.897Z,99641.34
2023-04-11T19:23:44.159Z,99636.52
2023-04-11T19:26:16.256Z,99634.07
2023-04-11T19:28:48.035Z,99635.24
2023-04-11T19:31:19.125Z,99638.31
2023-04-11T19:33:50.184Z,99634.67
2023-04-11T19:36:22.556Z,99630.67
2023-04-11T19:38:53.637Z,99634.36
2023-04-11T19:41:24.752Z,99635.97
2023-04-11T19:43:56.286Z,99632.42
2023-04-11T19:46:27.747Z,99635.58
2023-04-11T19:49:02.743Z,99630.16
2023-04-11T19:51:33.750Z,99630.45
2023-04-11T19:54:13.394Z,99630.10
2023-04-11T19:56:50.687Z,99627.70
2023-04-11T19:59:24.224Z,99631.34
2023-04-11T20:01:59.644Z,99640.16
2023-04-11T20:04:30.855Z,99641.95
2023-04-11T20:07:04.537Z,99642.73
2023-04-11T20:09:35.683Z,99647.27
2023-04-11T20:12:20.293Z,99644.98
2023-04-11T20:14:51.427Z,99645.91
2023-04-11T20:17:22.519Z,99648.52
2023-04-11T20:19:57.100Z,99648.75
2023-04-11T20:22:28.468Z,99646.17
2023-04-11T20:24:59.395Z,99641.90
2023-04-11T20:27:30.492Z,99641.69
2023-04-11T20:30:01.984Z,99639.44
2023-04-11T20:32:32.954Z,99638.38
2023-04-11T20:35:05.245Z,99635.90
2023-04-11T20:37:37.523Z,99633.42
2023-04-11T20:40:11.172Z,99629.98
2023-04-11T20:42:47.739Z,99627.20
2023-04-11T20:45:21.869Z,99627.17
2023-04-11T20:51:02.822Z,99627.91
2023-04-11T20:53:33.978Z,99629.23
2023-04-11T20:56:05.440Z,99632.11
2023-04-11T20:58:36.935Z,99632.77
2023-04-11T21:01:09.364Z,99633.13
2023-04-11T21:03:44.695Z,99632.60
2023-04-11T21:06:16.557Z,99635.48
2023-04-11T21:08:47.639Z,99627.98
2023-04-11T21:11:21.078Z,99630.06
2023-04-11T21:13:55.029Z,99632.45
2023-04-11T21:16:34.018Z,99629.88
2023-04-11T21:19:04.980Z,99629.55
2023-04-11T21:21:38.226Z,99626.84
2023-04-11T21:24:09.842Z,99625.64
2023-04-11T21:26:41.563Z,99628.23
2023-04-11T21:29:12.484Z,99635.98
2023-04-11T21:31:43.474Z,99642.49
2023-04-11T21:34:14.491Z,99643.71
2023-04-11T21:36:45.454Z,99648.52
2023-04-11T21:39:16.381Z,99650.48
2023-04-11T21:41:47.322Z,99651.07
2023-04-11T21:44:18.239Z,99646.54
2023-04-11T21:46:49.218Z,99639.60
2023-04-11T21:49:20.320Z,99633.00
2023-04-11T21:51:51.266Z,99636.81
2023-04-11T21:54:22.278Z,99639.27
2023-04-11T21:56:53.182Z,99640.38
2023-04-11T21:59:24.137Z,99637.38
2023-04-11T22:01:55.315Z,99638.83
2023-04-11T22:04:29.332Z,99640.12
2023-04-11T22:07:00.695Z,99637.61
2023-04-11T22:09:33.287Z,99634.11
2023-04-11T22:12:04.810Z,99636.09
2023-04-11T22:14:38.390Z,99639.61
2023-04-11T22:17:09.975Z,99640.88
2023-04-11T22:19:42.363Z,99643.84
2023-04-11T22:22:13.263Z,99642.02
2023-04-11T22:24:46.547Z,99639.52
2023-04-11T22:27:18.318Z,99637.20
2023-04-11T22:29:49.370Z,99633.17
2023-04-11T22:32:20.522Z,99624.05
2023-04-11T22:34:51.961Z,99622.30
2023-04-11T22:37:22.858Z,99627.56
2023-04-11T22:39:53.870Z,99625.17
2023-04-11T22:42:24.977Z,99620.58
2023-04-11T22:44:55.892Z,99621.44
2023-04-11T22:47:28.777Z,99623.18
2023-04-11T22:50:00.612Z,99630.16
2023-04-11T22:52:31.568Z,99633.40
2023-04-11T22:55:04.839Z,99630.66
2023-04-11T22:57:36.950Z,99630.67
2023-04-11T23:00:12.267Z,99623.48
2023-04-11T23:02:41.610Z,99619.17
2023-04-11T23:05:13.022Z,99618.60
2023-04-11T23:07:43.946Z,99622.46
2023-04-11T23:10:15.562Z,99630.88
2023-04-11T23:12:47.482Z,99626.83
2023-04-11T23:15:19.380Z,99627.73
2023-04-11T23:17:50.482Z,99622.80
2023-04-11T23:20:24.729Z,99616.34
2023-04-11T23:22:55.677Z,99619.28
2023-04-11T23:25:27.985Z,99620.69
2023-04-11T23:27:58.978Z,99623.08
2023-04-11T23:30:30.112Z,99622.88
2023-04-11T23:33:02.250Z,99617.38
2023-04-11T23:35:34.548Z,99618.05
2023-04-11T23:38:06.266Z,99620.25
2023-04-11T23:40:38.501Z,99622.44
2023-04-11T23:43:09.465Z,99618.46
2023-04-11T23:45:40.600Z,99618.62
2023-04-11T23:48:11.758Z,99616.91
2023-04-11T23:50:42.900Z,99614.02
2023-04-11T23:53:13.934Z,99620.54
2023-04-11T23:55:45.094Z,99626.05
2023-04-11T23:58:16.003Z,99621.63
